createdAt,value
2022-08-03T00:00:59.223Z,0
2022-08-03T00:01:59.213Z,0
2022-08-03T00:02:59.200Z,0
2022-08-03T00:03:59.194Z,0
2022-08-03T00:04:59.177Z,0
2022-08-03T00:05:59.169Z,0
2022-08-03T00:06:59.155Z,0
2022-08-03T00:07:59.146Z,0
2022-08-03T00:08:59.146Z,0
2022-08-03T00:09:59.122Z,0
2022-08-03T00:10:59.116Z,0
2022-08-03T00:11:59.108Z,0
2022-08-03T00:12:59.096Z,0
2022-08-03T00:13:59.080Z,0
2022-08-03T00:14:59.089Z,0
2022-08-03T00:15:59.061Z,0
2022-08-03T00:16:59.048Z,0
2022-08-03T00:17:59.041Z,0
2022-08-03T00:18:59.050Z,0
2022-08-03T00:19:59.013Z,0
2022-08-03T00:20:59.006Z,0
2022-08-03T00:21:58.996Z,0
2022-08-03T00:22:59.002Z,0
2022-08-03T00:23:58.978Z,0
2022-08-03T00:24:58.961Z,0
2022-08-03T00:25:58.977Z,0
2022-08-03T00:26:58.952Z,0
2022-08-03T00:27:58.937Z,0
2022-08-03T00:28:58.923Z,0
2022-08-03T00:29:58.913Z,0
2022-08-03T00:30:58.911Z,0
2022-08-03T00:31:58.907Z,0
2022-08-03T00:32:58.894Z,0
2022-08-03T00:33:58.867Z,0
2022-08-03T00:34:58.865Z,0
2022-08-03T00:35:58.858Z,0
2022-08-03T00:36:58.839Z,0
2022-08-03T00:37:58.841Z,0
2022-08-03T00:38:58.827Z,0
2022-08-03T00:39:58.818Z,0
2022-08-03T00:40:58.807Z,0
2022-08-03T00:41:58.788Z,0
2022-08-03T00:42:58.782Z,0
2022-08-03T00:43:58.770Z,0
2022-08-03T00:44:58.754Z,0
2022-08-03T00:45:58.747Z,0
2022-08-03T00:46:58.735Z,0
2022-08-03T00:47:58.737Z,0
2022-08-03T00:48:58.710Z,0
2022-08-03T00:49:58.702Z,0
2022-08-03T00:50:58.707Z,0
2022-08-03T00:51:58.692Z,0
2022-08-03T00:52:58.672Z,0
2022-08-03T00:53:58.670Z,0
2022-08-03T00:54:58.653Z,0
2022-08-03T00:55:58.645Z,0
2022-08-03T00:56:58.644Z,0
2022-08-03T00:57:58.626Z,0
2022-08-03T00:58:58.615Z,0
2022-08-03T00:59:58.604Z,0
2022-08-03T01:00:58.592Z,0
2022-08-03T01:01:58.578Z,0
2022-08-03T01:02:58.576Z,0
2022-08-03T01:03:58.558Z,0
2022-08-03T01:04:58.552Z,0
2022-08-03T01:05:58.541Z,0
2022-08-03T01:06:58.528Z,0
2022-08-03T01:07:58.544Z,0
2022-08-03T01:08:58.502Z,0
2022-08-03T01:09:58.517Z,0
2022-08-03T01:10:58.483Z,0
2022-08-03T01:11:58.480Z,0
2022-08-03T01:12:58.465Z,0
2022-08-03T01:13:58.456Z,0
2022-08-03T01:14:58.441Z,0
2022-08-03T01:15:58.429Z,0
2022-08-03T01:16:58.420Z,0
2022-08-03T01:17:58.434Z,0
2022-08-03T01:18:58.400Z,0
2022-08-03T01:19:58.385Z,0
2022-08-03T01:20:58.382Z,0
2022-08-03T01:21:58.362Z,0
2022-08-03T01:22:58.359Z,0
2022-08-03T01:23:58.349Z,0
2022-08-03T01:24:58.336Z,0
2022-08-03T01:25:58.328Z,0
2022-08-03T01:26:58.313Z,0
2022-08-03T01:27:58.301Z,0
2022-08-03T01:28:58.302Z,0
2022-08-03T01:29:58.281Z,0
2022-08-03T01:30:58.274Z,0
2022-08-03T01:31:58.260Z,0
2022-08-03T01:32:58.259Z,0
2022-08-03T01:33:58.239Z,0
2022-08-03T01:34:58.225Z,0
2022-08-03T01:35:58.236Z,0
2022-08-03T01:36:58.218Z,0
2022-08-03T01:37:58.206Z,0
2022-08-03T01:38:58.187Z,0
2022-08-03T01:39:58.176Z,0
2022-08-03T01:40:58.158Z,0
2022-08-03T01:41:58.154Z,0
2022-08-03T01:42:58.152Z,0
2022-08-03T01:43:58.129Z,0
2022-08-03T01:44:58.121Z,0
2022-08-03T01:45:58.112Z,0
2022-08-03T01:46:58.123Z,0
2022-08-03T01:47:58.096Z,0
2022-08-03T01:48:58.088Z,0
2022-08-03T01:49:58.077Z,0
2022-08-03T01:50:58.054Z,0
2022-08-03T01:51:58.043Z,0
2022-08-03T01:52:58.038Z,0
2022-08-03T01:53:58.023Z,0
2022-08-03T01:54:58.025Z,0
2022-08-03T01:55:58.000Z,0
2022-08-03T01:56:57.994Z,0
2022-08-03T01:57:57.979Z,0
2022-08-03T01:58:57.980Z,0
2022-08-03T01:59:57.963Z,0
2022-08-03T02:00:57.959Z,0
2022-08-03T02:01:57.937Z,0
2022-08-03T02:02:57.932Z,0
2022-08-03T02:03:57.919Z,0
2022-08-03T02:04:57.909Z,0
2022-08-03T02:05:57.893Z,0
2022-08-03T02:06:57.889Z,0
2022-08-03T02:07:57.874Z,0
2022-08-03T02:08:57.865Z,0
2022-08-03T02:09:57.858Z,0
2022-08-03T02:10:57.846Z,0
2022-08-03T02:11:57.826Z,0
2022-08-03T02:12:57.823Z,0
2022-08-03T02:13:57.815Z,0
2022-08-03T02:14:57.802Z,0
2022-08-03T02:15:57.796Z,0
2022-08-03T02:16:57.786Z,0
2022-08-03T02:17:57.782Z,0
2022-08-03T02:18:57.770Z,0
2022-08-03T02:19:57.749Z,0
2022-08-03T02:20:57.746Z,0
2022-08-03T02:21:57.729Z,0
2022-08-03T02:22:57.719Z,0
2022-08-03T02:23:57.703Z,0
2022-08-03T02:24:57.693Z,0
2022-08-03T02:25:57.712Z,0
2022-08-03T02:26:57.668Z,0
2022-08-03T02:27:57.662Z,0
2022-08-03T02:28:57.654Z,0
2022-08-03T02:29:57.641Z,0
2022-08-03T02:30:57.639Z,0
2022-08-03T02:31:57.626Z,0
2022-08-03T02:32:57.619Z,0
2022-08-03T02:33:57.596Z,0
2022-08-03T02:34:57.586Z,0
2022-08-03T02:35:57.584Z,0
2022-08-03T02:36:57.568Z,0
2022-08-03T02:37:58.312Z,0
2022-08-03T02:38:57.547Z,0
2022-08-03T02:39:57.535Z,0
2022-08-03T02:40:57.523Z,0
2022-08-03T02:41:57.524Z,0
2022-08-03T02:42:57.508Z,0
2022-08-03T02:43:57.487Z,0
2022-08-03T02:44:57.477Z,0
2022-08-03T02:45:57.475Z,0
2022-08-03T02:46:57.455Z,0
2022-08-03T02:47:57.453Z,0
2022-08-03T02:48:57.433Z,0
2022-08-03T02:49:57.435Z,0
2022-08-03T02:50:57.418Z,0
2022-08-03T02:51:57.411Z,0
2022-08-03T02:52:57.391Z,0
2022-08-03T02:53:57.385Z,0
2022-08-03T02:54:57.371Z,0
2022-08-03T02:55:57.361Z,0
2022-08-03T02:56:57.354Z,0
2022-08-03T02:57:57.348Z,0
2022-08-03T02:58:57.328Z,0
2022-08-03T02:59:57.321Z,0
2022-08-03T03:00:57.311Z,0
2022-08-03T03:01:57.311Z,0
2022-08-03T03:02:57.299Z,0
2022-08-03T03:03:57.275Z,0
2022-08-03T03:04:57.268Z,0
2022-08-03T03:05:57.256Z,0
2022-08-03T03:06:57.243Z,0
2022-08-03T03:07:57.244Z,0
2022-08-03T03:08:57.221Z,0
2022-08-03T03:09:57.212Z,0
2022-08-03T03:10:57.204Z,0
2022-08-03T03:11:57.185Z,0
2022-08-03T03:12:57.183Z,0
2022-08-03T03:13:57.174Z,0
2022-08-03T03:14:57.157Z,0
2022-08-03T03:15:57.145Z,0
2022-08-03T03:16:57.138Z,0
2022-08-03T03:17:57.134Z,0
2022-08-03T03:18:57.116Z,0
2022-08-03T03:19:57.118Z,0
2022-08-03T03:20:57.091Z,0
2022-08-03T03:21:57.086Z,0
2022-08-03T03:22:57.069Z,0
2022-08-03T03:23:57.070Z,0
2022-08-03T03:24:57.046Z,0
2022-08-03T03:25:57.045Z,0
2022-08-03T03:26:57.031Z,0
2022-08-03T03:27:57.019Z,0
2022-08-03T03:28:57.004Z,0
2022-08-03T03:29:57.003Z,0
2022-08-03T03:30:56.986Z,0
2022-08-03T03:31:56.994Z,0
2022-08-03T03:32:56.963Z,0
2022-08-03T03:33:56.966Z,0
2022-08-03T03:34:56.944Z,0
2022-08-03T03:35:56.937Z,0
2022-08-03T03:36:56.915Z,0
2022-08-03T03:37:56.914Z,0
2022-08-03T03:38:56.924Z,0
2022-08-03T03:39:56.898Z,0
2022-08-03T03:40:56.876Z,0
2022-08-03T03:41:56.867Z,0
2022-08-03T03:42:56.862Z,0
2022-08-03T03:43:56.842Z,0
2022-08-03T03:44:56.845Z,0
2022-08-03T03:45:56.822Z,0
2022-08-03T03:46:56.820Z,0
2022-08-03T03:47:56.803Z,0
2022-08-03T03:48:56.802Z,0
2022-08-03T03:49:56.774Z,0
2022-08-03T03:50:56.773Z,0
2022-08-03T03:51:56.761Z,0
2022-08-03T03:52:56.766Z,0
2022-08-03T03:53:56.737Z,0
2022-08-03T03:54:56.728Z,5.62
2022-08-03T03:55:56.717Z,5.62
2022-08-03T03:56:56.718Z,5.62
2022-08-03T03:57:56.697Z,5.62
2022-08-03T03:58:56.679Z,5.62
2022-08-03T03:59:56.671Z,5.62
2022-08-03T04:00:56.681Z,5.62
2022-08-03T04:01:56.653Z,5.62
2022-08-03T04:02:56.659Z,5.62
2022-08-03T04:03:56.631Z,5.62
2022-08-03T04:04:56.623Z,5.62
2022-08-03T04:05:56.624Z,5.62
2022-08-03T04:06:56.597Z,5.62
2022-08-03T04:07:56.594Z,5.62
2022-08-03T04:08:56.572Z,11.25
2022-08-03T04:09:56.573Z,11.25
2022-08-03T04:10:56.560Z,11.25
2022-08-03T04:11:56.545Z,11.25
2022-08-03T04:12:56.532Z,11.25
2022-08-03T04:13:56.528Z,11.25
2022-08-03T04:14:56.510Z,11.25
2022-08-03T04:15:56.504Z,11.25
2022-08-03T04:16:56.491Z,11.25
2022-08-03T04:17:56.486Z,11.25
2022-08-03T04:18:56.468Z,11.25
2022-08-03T04:19:56.461Z,11.25
2022-08-03T04:20:56.446Z,16.88
2022-08-03T04:21:56.441Z,16.88
2022-08-03T04:22:56.431Z,16.88
2022-08-03T04:23:56.450Z,16.88
2022-08-03T04:24:56.404Z,16.88
2022-08-03T04:25:56.405Z,16.88
2022-08-03T04:26:56.380Z,16.88
2022-08-03T04:27:56.367Z,16.88
2022-08-03T04:28:56.360Z,16.88
2022-08-03T04:29:56.356Z,16.88
2022-08-03T04:30:56.340Z,16.88
2022-08-03T04:31:56.343Z,16.88
2022-08-03T04:32:56.323Z,16.88
2022-08-03T04:33:56.310Z,22.5
2022-08-03T04:34:56.306Z,22.5
2022-08-03T04:35:56.288Z,22.5
2022-08-03T04:36:56.286Z,22.5
2022-08-03T04:37:56.266Z,22.5
2022-08-03T04:38:56.253Z,22.5
2022-08-03T04:39:56.249Z,22.5
2022-08-03T04:40:56.238Z,22.5
2022-08-03T04:41:56.222Z,22.5
2022-08-03T04:42:56.208Z,22.5
2022-08-03T04:43:56.202Z,22.5
2022-08-03T04:44:56.222Z,22.5
2022-08-03T04:45:56.182Z,22.5
2022-08-03T04:46:56.170Z,28.12
2022-08-03T04:47:56.164Z,28.12
2022-08-03T04:48:56.150Z,28.12
2022-08-03T04:49:56.132Z,28.12
2022-08-03T04:50:56.126Z,28.12
2022-08-03T04:51:56.118Z,28.12
2022-08-03T04:52:56.164Z,28.12
2022-08-03T04:53:56.095Z,28.12
2022-08-03T04:54:56.082Z,28.12
2022-08-03T04:55:56.072Z,28.12
2022-08-03T04:56:56.060Z,28.12
2022-08-03T04:57:56.052Z,28.12
2022-08-03T04:58:56.048Z,28.12
2022-08-03T04:59:56.052Z,28.12
2022-08-03T05:00:56.026Z,33.75
2022-08-03T05:01:56.004Z,33.75
2022-08-03T05:02:56.006Z,33.75
2022-08-03T05:03:55.990Z,33.75
2022-08-03T05:04:55.980Z,33.75
2022-08-03T05:05:55.969Z,33.75
2022-08-03T05:06:55.969Z,33.75
2022-08-03T05:07:55.955Z,33.75
2022-08-03T05:08:55.936Z,39.38
2022-08-03T05:09:55.942Z,39.38
2022-08-03T05:10:55.908Z,33.75
2022-08-03T05:11:55.898Z,39.38
2022-08-03T05:12:55.888Z,39.38
2022-08-03T05:13:55.879Z,39.38
2022-08-03T05:14:55.874Z,45
2022-08-03T05:15:55.856Z,45
2022-08-03T05:16:55.851Z,45
2022-08-03T05:17:55.841Z,45
2022-08-03T05:18:55.838Z,45
2022-08-03T05:19:55.809Z,50.62
2022-08-03T05:20:55.800Z,50.62
2022-08-03T05:21:55.807Z,50.62
2022-08-03T05:22:55.809Z,50.62
2022-08-03T05:23:55.768Z,50.62
2022-08-03T05:24:55.752Z,56.25
2022-08-03T05:25:55.754Z,56.25
2022-08-03T05:26:55.740Z,56.25
2022-08-03T05:27:55.728Z,56.25
2022-08-03T05:28:55.717Z,56.25
2022-08-03T05:29:55.712Z,56.25
2022-08-03T05:30:55.703Z,50.62
2022-08-03T05:31:55.682Z,56.25
2022-08-03T05:32:55.680Z,50.62
2022-08-03T05:33:55.668Z,56.25
2022-08-03T05:34:55.658Z,61.88
2022-08-03T05:35:55.640Z,61.88
2022-08-03T05:36:55.644Z,67.5
2022-08-03T05:37:55.617Z,73.12
2022-08-03T05:38:55.623Z,73.12
2022-08-03T05:39:55.604Z,73.12
2022-08-03T05:40:55.598Z,73.12
2022-08-03T05:41:55.572Z,78.75
2022-08-03T05:42:55.562Z,78.75
2022-08-03T05:43:55.559Z,78.75
2022-08-03T05:44:55.547Z,78.75
2022-08-03T05:45:55.528Z,78.75
2022-08-03T05:46:55.538Z,78.75
2022-08-03T05:47:55.513Z,73.12
2022-08-03T05:48:55.504Z,78.75
2022-08-03T05:49:55.498Z,78.75
2022-08-03T05:50:55.481Z,73.12
2022-08-03T05:51:55.471Z,73.12
2022-08-03T05:52:55.465Z,84.38
2022-08-03T05:53:55.452Z,90
2022-08-03T05:54:55.445Z,90
2022-08-03T05:55:55.452Z,90
2022-08-03T05:56:55.417Z,84.38
2022-08-03T05:57:55.411Z,84.38
2022-08-03T05:58:55.389Z,90
2022-08-03T05:59:55.381Z,90
2022-08-03T06:00:55.374Z,95.62
2022-08-03T06:01:55.376Z,90
2022-08-03T06:02:55.352Z,90
2022-08-03T06:03:55.344Z,90
2022-08-03T06:04:55.340Z,84.38
2022-08-03T06:05:55.318Z,84.38
2022-08-03T06:06:55.310Z,90
2022-08-03T06:07:55.297Z,90
2022-08-03T06:08:55.302Z,84.38
2022-08-03T06:09:55.289Z,78.75
2022-08-03T06:10:55.268Z,78.75
2022-08-03T06:11:55.256Z,84.38
2022-08-03T06:12:55.246Z,84.38
2022-08-03T06:13:55.250Z,90
2022-08-03T06:14:55.219Z,84.38
2022-08-03T06:15:55.237Z,78.75
2022-08-03T06:16:55.207Z,78.75
2022-08-03T06:17:55.193Z,78.75
2022-08-03T06:18:55.184Z,78.75
2022-08-03T06:19:55.178Z,84.38
2022-08-03T06:20:55.178Z,84.38
2022-08-03T06:21:55.148Z,90
2022-08-03T06:22:55.140Z,84.38
2022-08-03T06:23:55.130Z,84.38
2022-08-03T06:24:55.138Z,84.38
2022-08-03T06:25:55.107Z,73.12
2022-08-03T06:26:55.099Z,78.75
2022-08-03T06:27:55.096Z,78.75
2022-08-03T06:28:55.184Z,84.38
2022-08-03T06:29:55.069Z,84.38
2022-08-03T06:30:55.053Z,84.38
2022-08-03T06:31:55.050Z,90
2022-08-03T06:32:55.035Z,90
2022-08-03T06:33:55.049Z,90
2022-08-03T06:34:55.019Z,90
2022-08-03T06:35:55.005Z,90
2022-08-03T06:36:54.991Z,90
2022-08-03T06:37:54.983Z,90
2022-08-03T06:38:54.979Z,90
2022-08-03T06:39:54.965Z,90
2022-08-03T06:40:54.951Z,95.62
2022-08-03T06:41:54.939Z,90
2022-08-03T06:42:54.934Z,95.62
2022-08-03T06:43:54.920Z,90
2022-08-03T06:44:54.929Z,90
2022-08-03T06:45:54.895Z,90
2022-08-03T06:46:54.882Z,90
2022-08-03T06:47:54.882Z,90
2022-08-03T06:48:54.887Z,95.62
2022-08-03T06:49:54.859Z,95.62
2022-08-03T06:50:54.843Z,95.62
2022-08-03T06:51:54.845Z,95.62
2022-08-03T06:52:54.827Z,101.25
2022-08-03T06:53:54.818Z,101.25
2022-08-03T06:54:54.823Z,101.25
2022-08-03T06:55:54.787Z,112.5
2022-08-03T06:56:54.783Z,112.5
2022-08-03T06:57:54.768Z,112.5
2022-08-03T06:58:54.772Z,112.5
2022-08-03T06:59:54.748Z,123.75
2022-08-03T07:00:54.735Z,106.88
2022-08-03T07:01:54.749Z,106.88
2022-08-03T07:02:54.735Z,112.5
2022-08-03T07:03:54.699Z,118.12
2022-08-03T07:04:54.696Z,101.25
2022-08-03T07:05:54.679Z,123.75
2022-08-03T07:06:54.669Z,95.62
2022-08-03T07:07:54.661Z,101.25
2022-08-03T07:08:54.645Z,101.25
2022-08-03T07:09:54.644Z,101.25
2022-08-03T07:10:54.620Z,106.88
2022-08-03T07:11:54.622Z,140.62
2022-08-03T07:12:54.608Z,140.62
2022-08-03T07:13:54.590Z,123.75
2022-08-03T07:14:54.606Z,135
2022-08-03T07:15:54.570Z,146.25
2022-08-03T07:16:54.560Z,151.88
2022-08-03T07:17:54.553Z,163.12
2022-08-03T07:18:54.548Z,163.12
2022-08-03T07:19:54.533Z,163.12
2022-08-03T07:20:54.516Z,163.12
2022-08-03T07:21:54.538Z,163.12
2022-08-03T07:22:54.495Z,163.12
2022-08-03T07:23:54.484Z,157.5
2022-08-03T07:24:54.483Z,163.12
2022-08-03T07:25:54.470Z,151.88
2022-08-03T07:26:54.450Z,151.88
2022-08-03T07:27:54.443Z,157.5
2022-08-03T07:28:54.438Z,163.12
2022-08-03T07:29:54.423Z,168.75
2022-08-03T07:30:54.418Z,163.12
2022-08-03T07:31:54.398Z,174.38
2022-08-03T07:32:54.388Z,185.62
2022-08-03T07:33:54.389Z,180
2022-08-03T07:34:54.386Z,180
2022-08-03T07:35:54.355Z,191.25
2022-08-03T07:36:54.346Z,202.5
2022-08-03T07:37:54.343Z,191.25
2022-08-03T07:38:54.325Z,168.75
2022-08-03T07:39:54.352Z,180
2022-08-03T07:40:54.315Z,213.75
2022-08-03T07:41:54.298Z,213.75
2022-08-03T07:42:54.278Z,213.75
2022-08-03T07:43:54.270Z,213.75
2022-08-03T07:44:54.829Z,213.75
2022-08-03T07:45:54.256Z,202.5
2022-08-03T07:46:54.243Z,163.12
2022-08-03T07:47:54.230Z,185.62
2022-08-03T07:48:54.217Z,185.62
2022-08-03T07:49:54.225Z,208.12
2022-08-03T07:50:54.202Z,219.38
2022-08-03T07:51:54.189Z,219.38
2022-08-03T07:52:54.181Z,225
2022-08-03T07:53:54.164Z,219.38
2022-08-03T07:54:54.155Z,219.38
2022-08-03T07:55:54.147Z,225
2022-08-03T07:56:54.146Z,236.25
2022-08-03T07:57:54.121Z,230.62
2022-08-03T07:58:54.108Z,230.62
2022-08-03T07:59:54.121Z,230.62
2022-08-03T08:00:54.110Z,202.5
2022-08-03T08:01:54.085Z,191.25
2022-08-03T08:02:54.097Z,180
2022-08-03T08:03:54.058Z,191.25
2022-08-03T08:04:54.048Z,180
2022-08-03T08:05:54.030Z,185.62
2022-08-03T08:06:54.022Z,202.5
2022-08-03T08:07:54.014Z,219.38
2022-08-03T08:08:54.010Z,185.62
2022-08-03T08:09:53.998Z,213.75
2022-08-03T08:10:53.983Z,230.62
2022-08-03T08:11:53.966Z,225
2022-08-03T08:12:53.958Z,236.25
2022-08-03T08:13:53.957Z,247.5
2022-08-03T08:14:53.963Z,241.88
2022-08-03T08:15:53.926Z,236.25
2022-08-03T08:16:53.924Z,247.5
2022-08-03T08:17:53.907Z,241.88
2022-08-03T08:18:53.895Z,247.5
2022-08-03T08:19:53.884Z,247.5
2022-08-03T08:20:53.872Z,253.12
2022-08-03T08:21:53.866Z,258.75
2022-08-03T08:22:53.853Z,258.75
2022-08-03T08:23:53.850Z,258.75
2022-08-03T08:24:53.833Z,264.38
2022-08-03T08:25:53.829Z,270
2022-08-03T08:26:53.828Z,230.62
2022-08-03T08:27:53.802Z,213.75
2022-08-03T08:28:53.814Z,230.62
2022-08-03T08:29:53.780Z,236.25
2022-08-03T08:30:53.770Z,241.88
2022-08-03T08:31:53.808Z,264.38
2022-08-03T08:32:53.792Z,247.5
2022-08-03T08:33:53.757Z,253.12
2022-08-03T08:34:53.723Z,241.88
2022-08-03T08:35:53.717Z,270
2022-08-03T08:36:53.705Z,275.62
2022-08-03T08:37:53.692Z,275.62
2022-08-03T08:38:53.678Z,275.62
2022-08-03T08:39:53.691Z,281.25
2022-08-03T08:40:53.658Z,247.5
2022-08-03T08:41:53.647Z,241.88
2022-08-03T08:42:53.649Z,241.88
2022-08-03T08:43:53.631Z,213.75
2022-08-03T08:44:53.616Z,241.88
2022-08-03T08:45:53.608Z,247.5
2022-08-03T08:46:53.598Z,258.75
2022-08-03T08:47:53.588Z,281.25
2022-08-03T08:48:53.596Z,275.62
2022-08-03T08:49:53.564Z,281.25
2022-08-03T08:50:53.583Z,281.25
2022-08-03T08:51:53.550Z,275.62
2022-08-03T08:52:53.563Z,286.88
2022-08-03T08:53:53.525Z,292.5
2022-08-03T08:54:53.528Z,292.5
2022-08-03T08:55:53.533Z,275.62
2022-08-03T08:56:53.494Z,264.38
2022-08-03T08:57:53.481Z,253.12
2022-08-03T08:58:53.473Z,270
2022-08-03T08:59:53.465Z,292.5
2022-08-03T09:00:53.492Z,292.5
2022-08-03T09:01:53.439Z,292.5
2022-08-03T09:02:53.431Z,275.62
2022-08-03T09:03:53.422Z,292.5
2022-08-03T09:04:53.462Z,292.5
2022-08-03T09:05:53.408Z,286.88
2022-08-03T09:06:53.397Z,281.25
2022-08-03T09:07:53.379Z,286.88
2022-08-03T09:08:53.366Z,292.5
2022-08-03T09:09:53.364Z,286.88
2022-08-03T09:10:53.349Z,286.88
2022-08-03T09:11:53.334Z,286.88
2022-08-03T09:12:53.343Z,298.12
2022-08-03T09:13:53.315Z,298.12
2022-08-03T09:14:53.307Z,298.12
2022-08-03T09:15:53.302Z,303.75
2022-08-03T09:16:53.284Z,298.12
2022-08-03T09:17:53.275Z,298.12
2022-08-03T09:18:53.321Z,303.75
2022-08-03T09:19:53.249Z,303.75
2022-08-03T09:20:53.240Z,303.75
2022-08-03T09:21:53.237Z,309.38
2022-08-03T09:22:53.222Z,298.12
2022-08-03T09:23:53.223Z,286.88
2022-08-03T09:24:53.226Z,286.88
2022-08-03T09:25:53.195Z,292.5
2022-08-03T09:26:53.185Z,298.12
2022-08-03T09:27:53.169Z,298.12
2022-08-03T09:28:53.208Z,298.12
2022-08-03T09:29:53.149Z,309.38
2022-08-03T09:30:53.146Z,315
2022-08-03T09:31:53.122Z,320.62
2022-08-03T09:32:53.122Z,320.62
2022-08-03T09:33:53.105Z,309.38
2022-08-03T09:34:53.123Z,315
2022-08-03T09:35:53.094Z,320.62
2022-08-03T09:36:53.074Z,315
2022-08-03T09:37:53.059Z,303.75
2022-08-03T09:38:53.057Z,315
2022-08-03T09:39:53.064Z,315
2022-08-03T09:40:53.039Z,320.62
2022-08-03T09:41:53.030Z,320.62
2022-08-03T09:42:53.024Z,326.25
2022-08-03T09:43:53.007Z,320.62
2022-08-03T09:44:52.996Z,315
2022-08-03T09:45:52.997Z,320.62
2022-08-03T09:46:52.966Z,320.62
2022-08-03T09:47:52.963Z,326.25
2022-08-03T09:48:52.955Z,326.25
2022-08-03T09:49:52.963Z,326.25
2022-08-03T09:50:52.925Z,331.88
2022-08-03T09:51:52.913Z,326.25
2022-08-03T09:52:52.902Z,331.88
2022-08-03T09:53:52.916Z,326.25
2022-08-03T09:54:52.888Z,331.88
2022-08-03T09:55:52.884Z,343.12
2022-08-03T09:56:52.877Z,343.12
2022-08-03T09:57:52.858Z,343.12
2022-08-03T09:58:52.844Z,348.75
2022-08-03T09:59:52.836Z,343.12
2022-08-03T10:00:52.829Z,309.38
2022-08-03T10:01:52.820Z,337.5
2022-08-03T10:02:52.806Z,343.12
2022-08-03T10:03:52.805Z,354.38
2022-08-03T10:04:52.822Z,360
2022-08-03T10:05:52.778Z,360
2022-08-03T10:06:52.779Z,365.62
2022-08-03T10:07:52.770Z,365.62
2022-08-03T10:08:52.745Z,371.25
2022-08-03T10:09:52.765Z,371.25
2022-08-03T10:10:52.724Z,399.38
2022-08-03T10:11:52.713Z,393.75
2022-08-03T10:12:52.704Z,410.62
2022-08-03T10:13:52.716Z,466.88
2022-08-03T10:14:52.694Z,551.25
2022-08-03T10:15:52.677Z,624.38
2022-08-03T10:16:52.663Z,759.38
2022-08-03T10:17:52.662Z,911.25
2022-08-03T10:18:52.644Z,1040.62
2022-08-03T10:19:52.634Z,1080
2022-08-03T10:20:52.619Z,1141.88
2022-08-03T10:21:52.608Z,1147.5
2022-08-03T10:22:52.602Z,1192.5
2022-08-03T10:23:52.602Z,1198.12
2022-08-03T10:24:52.645Z,1226.25
2022-08-03T10:25:52.584Z,1288.12
2022-08-03T10:26:52.563Z,1282.5
2022-08-03T10:27:52.549Z,1282.5
2022-08-03T10:28:52.539Z,1203.75
2022-08-03T10:29:52.533Z,1125
2022-08-03T10:30:52.518Z,1164.38
2022-08-03T10:31:52.508Z,1237.5
2022-08-03T10:32:52.501Z,1355.62
2022-08-03T10:33:52.488Z,1288.12
2022-08-03T10:34:52.491Z,826.88
2022-08-03T10:35:52.467Z,421.88
2022-08-03T10:36:52.466Z,371.25
2022-08-03T10:37:52.445Z,376.88
2022-08-03T10:38:52.434Z,382.5
2022-08-03T10:39:52.424Z,371.25
2022-08-03T10:40:52.407Z,376.88
2022-08-03T10:41:52.401Z,371.25
2022-08-03T10:42:52.398Z,371.25
2022-08-03T10:43:52.378Z,365.62
2022-08-03T10:44:52.372Z,360
2022-08-03T10:45:52.377Z,365.62
2022-08-03T10:46:52.350Z,371.25
2022-08-03T10:47:52.340Z,376.88
2022-08-03T10:48:52.336Z,393.75
2022-08-03T10:49:52.327Z,399.38
2022-08-03T10:50:53.295Z,438.75
2022-08-03T10:51:52.310Z,697.5
2022-08-03T10:52:52.322Z,1040.62
2022-08-03T10:53:52.299Z,1085.62
2022-08-03T10:54:52.290Z,1220.62
2022-08-03T10:55:52.268Z,1468.12
2022-08-03T10:56:52.243Z,1355.62
2022-08-03T10:57:52.245Z,1445.62
2022-08-03T10:58:52.231Z,1501.88
2022-08-03T10:59:52.235Z,1125
2022-08-03T11:00:52.225Z,1074.38
2022-08-03T11:01:52.199Z,1518.75
2022-08-03T11:02:52.189Z,1485
2022-08-03T11:03:52.173Z,1428.75
2022-08-03T11:04:52.169Z,1524.38
2022-08-03T11:05:52.174Z,1575
2022-08-03T11:06:52.152Z,1541.25
2022-08-03T11:07:52.129Z,1209.38
2022-08-03T11:08:52.126Z,1344.38
2022-08-03T11:09:52.116Z,1479.38
2022-08-03T11:10:52.101Z,1507.5
2022-08-03T11:11:52.088Z,1456.88
2022-08-03T11:12:52.087Z,1496.25
2022-08-03T11:13:52.094Z,1501.88
2022-08-03T11:14:52.067Z,1490.62
2022-08-03T11:15:52.054Z,1456.88
2022-08-03T11:16:52.042Z,1462.5
2022-08-03T11:17:52.034Z,1507.5
2022-08-03T11:18:52.037Z,1428.75
2022-08-03T11:19:52.020Z,1383.75
2022-08-03T11:20:52.017Z,961.88
2022-08-03T11:21:51.997Z,1175.62
2022-08-03T11:22:51.978Z,1333.12
2022-08-03T11:23:51.969Z,1383.75
2022-08-03T11:24:51.988Z,1530
2022-08-03T11:25:51.953Z,1490.62
2022-08-03T11:26:51.943Z,1490.62
2022-08-03T11:27:51.938Z,1501.88
2022-08-03T11:28:51.924Z,1456.88
2022-08-03T11:29:51.920Z,1220.62
2022-08-03T11:30:51.905Z,1310.62
2022-08-03T11:31:51.888Z,1501.88
2022-08-03T11:32:51.876Z,1524.38
2022-08-03T11:33:51.875Z,1541.25
2022-08-03T11:34:51.862Z,1524.38
2022-08-03T11:35:51.875Z,1288.12
2022-08-03T11:36:51.856Z,1378.12
2022-08-03T11:37:51.832Z,1580.62
2022-08-03T11:38:51.835Z,1563.75
2022-08-03T11:39:51.819Z,1350
2022-08-03T11:40:51.802Z,1321.88
2022-08-03T11:41:51.800Z,1456.88
2022-08-03T11:42:51.779Z,1423.12
2022-08-03T11:43:51.772Z,1136.25
2022-08-03T11:44:51.758Z,1203.75
2022-08-03T11:45:51.761Z,1361.25
2022-08-03T11:47:06.404Z,1136.25
2022-08-03T11:47:51.730Z,877.5
2022-08-03T11:48:51.742Z,1001.25
2022-08-03T11:49:51.706Z,1417.5
2022-08-03T11:50:51.709Z,1479.38
2022-08-03T11:51:51.688Z,1423.12
2022-08-03T11:52:51.677Z,1423.12
2022-08-03T11:53:51.676Z,1310.62
2022-08-03T11:54:51.657Z,1518.75
2022-08-03T11:55:51.655Z,1288.12
2022-08-03T11:56:51.636Z,1181.25
2022-08-03T11:57:51.640Z,748.12
2022-08-03T11:58:51.620Z,883.12
2022-08-03T11:59:51.634Z,933.75
2022-08-03T12:00:51.596Z,1063.12
2022-08-03T12:01:51.598Z,1338.75
2022-08-03T12:02:51.578Z,1434.38
2022-08-03T12:03:51.569Z,1642.5
2022-08-03T12:04:51.561Z,1620
2022-08-03T12:05:51.544Z,1575
2022-08-03T12:06:51.536Z,1513.12
2022-08-03T12:07:51.530Z,1518.75
2022-08-03T12:08:51.542Z,1546.88
2022-08-03T12:09:51.507Z,1490.62
2022-08-03T12:10:51.494Z,1507.5
2022-08-03T12:11:51.486Z,1597.5
2022-08-03T12:12:51.476Z,1631.25
2022-08-03T12:13:51.467Z,1569.38
2022-08-03T12:14:51.458Z,1580.62
2022-08-03T12:15:51.460Z,1608.75
2022-08-03T12:16:51.433Z,1625.62
2022-08-03T12:17:51.426Z,1586.25
2022-08-03T12:18:51.422Z,1276.88
2022-08-03T12:19:51.407Z,590.62
2022-08-03T12:20:51.410Z,354.38
2022-08-03T12:21:51.400Z,337.5
2022-08-03T12:22:51.390Z,331.88
2022-08-03T12:23:51.377Z,331.88
2022-08-03T12:24:51.354Z,331.88
2022-08-03T12:25:51.347Z,331.88
2022-08-03T12:26:51.348Z,331.88
2022-08-03T12:27:51.324Z,309.38
2022-08-03T12:28:51.324Z,309.38
2022-08-03T12:29:51.304Z,292.5
2022-08-03T12:30:51.292Z,292.5
2022-08-03T12:31:51.302Z,315
2022-08-03T12:32:51.279Z,309.38
2022-08-03T12:33:51.278Z,309.38
2022-08-03T12:34:51.257Z,309.38
2022-08-03T12:35:51.246Z,309.38
2022-08-03T12:36:51.234Z,309.38
2022-08-03T12:37:51.230Z,309.38
2022-08-03T12:38:51.274Z,309.38
2022-08-03T12:39:51.234Z,315
2022-08-03T12:40:51.200Z,320.62
2022-08-03T12:41:51.193Z,331.88
2022-08-03T12:42:51.185Z,438.75
2022-08-03T12:43:51.168Z,1035
2022-08-03T12:44:51.163Z,1518.75
2022-08-03T12:45:51.159Z,1456.88
2022-08-03T12:46:51.134Z,1473.75
2022-08-03T12:47:51.141Z,1530
2022-08-03T12:48:51.135Z,1501.88
2022-08-03T12:49:51.110Z,1473.75
2022-08-03T12:50:51.101Z,1462.5
2022-08-03T12:51:51.094Z,1507.5
2022-08-03T12:52:51.074Z,1546.88
2022-08-03T12:53:51.079Z,1518.75
2022-08-03T12:54:51.061Z,1563.75
2022-08-03T12:55:51.050Z,1530
2022-08-03T12:56:51.045Z,1490.62
2022-08-03T12:57:51.040Z,1518.75
2022-08-03T12:58:51.019Z,1507.5
2022-08-03T12:59:51.011Z,1580.62
2022-08-03T13:00:50.997Z,1569.38
2022-08-03T13:01:50.988Z,1563.75
2022-08-03T13:02:50.976Z,1524.38
2022-08-03T13:03:50.983Z,1524.38
2022-08-03T13:04:50.957Z,1507.5
2022-08-03T13:05:50.944Z,1125
2022-08-03T13:06:50.937Z,534.38
2022-08-03T13:07:51.901Z,331.88
2022-08-03T13:08:50.921Z,315
2022-08-03T13:09:50.914Z,303.75
2022-08-03T13:10:50.896Z,298.12
2022-08-03T13:11:50.893Z,292.5
2022-08-03T13:12:50.876Z,286.88
2022-08-03T13:13:50.863Z,281.25
2022-08-03T13:14:50.861Z,281.25
2022-08-03T13:15:50.848Z,275.62